sensor_id;sensor_type;location;lat;lon;timestamp;P1;durP1;ratioP1;P2;durP2;ratioP2
76574;SDS011;65439;50.948;6.988;2023-03-26T00:02:03;10.00;;;3.10;;
76574;SDS011;65439;50.948;6.988;2023-03-26T00:04:28;10.00;;;2.80;;
76574;SDS011;65439;50.948;6.988;2023-03-26T00:06:57;20.80;;;4.30;;
76574;SDS011;65439;50.948;6.988;2023-03-26T00:09:22;14.13;;;3.43;;
76574;SDS011;65439;50.948;6.988;2023-03-26T00:11:47;14.30;;;4.17;;
76574;SDS011;65439;50.948;6.988;2023-03-26T00:14:13;17.88;;;3.50;;
76574;SDS011;65439;50.948;6.988;2023-03-26T00:16:41;12.48;;;4.13;;
76574;SDS011;65439;50.948;6.988;2023-03-26T00:19:08;14.20;;;4.00;;
76574;SDS011;65439;50.948;6.988;2023-03-26T00:21:34;8.73;;;3.05;;
76574;SDS011;65439;50.948;6.988;2023-03-26T00:24:02;13.48;;;3.50;;
76574;SDS011;65439;50.948;6.988;2023-03-26T00:26:30;19.75;;;3.38;;
76574;SDS011;65439;50.948;6.988;2023-03-26T00:28:57;29.23;;;4.30;;
76574;SDS011;65439;50.948;6.988;2023-03-26T00:31:24;9.32;;;3.38;;
76574;SDS011;65439;50.948;6.988;2023-03-26T00:33:49;15.07;;;3.33;;
76574;SDS011;65439;50.948;6.988;2023-03-26T00:36:18;18.63;;;3.95;;
76574;SDS011;65439;50.948;6.988;2023-03-26T00:38:43;17.38;;;3.78;;
76574;SDS011;65439;50.948;6.988;2023-03-26T00:41:11;17.02;;;4.43;;
76574;SDS011;65439;50.948;6.988;2023-03-26T00:43:47;15.20;;;2.78;;
76574;SDS011;65439;50.948;6.988;2023-03-26T00:48:39;13.00;;;4.40;;
76574;SDS011;65439;50.948;6.988;2023-03-26T00:51:06;10.98;;;4.28;;
76574;SDS011;65439;50.948;6.988;2023-03-26T00:53:32;13.13;;;3.30;;
76574;SDS011;65439;50.948;6.988;2023-03-26T00:55:58;14.33;;;4.47;;
76574;SDS011;65439;50.948;6.988;2023-03-26T00:58:25;14.52;;;3.38;;
76574;SDS011;65439;50.948;6.988;2023-03-26T01:00:52;15.27;;;4.50;;
76574;SDS011;65439;50.948;6.988;2023-03-26T01:03:22;11.55;;;3.22;;
76574;SDS011;65439;50.948;6.988;2023-03-26T01:05:59;17.83;;;3.70;;
76574;SDS011;65439;50.948;6.988;2023-03-26T01:11:07;8.02;;;3.10;;
76574;SDS011;65439;50.948;6.988;2023-03-26T01:13:38;16.23;;;3.78;;
76574;SDS011;65439;50.948;6.988;2023-03-26T01:16:16;11.70;;;4.38;;
76574;SDS011;65439;50.948;6.988;2023-03-26T01:18:45;13.55;;;4.00;;
76574;SDS011;65439;50.948;6.988;2023-03-26T01:21:12;10.43;;;3.42;;
76574;SDS011;65439;50.948;6.988;2023-03-26T01:23:46;11.27;;;3.47;;
76574;SDS011;65439;50.948;6.988;2023-03-26T01:26:26;14.48;;;4.38;;
76574;SDS011;65439;50.948;6.988;2023-03-26T01:29:03;18.55;;;3.65;;
76574;SDS011;65439;50.948;6.988;2023-03-26T01:31:35;15.73;;;4.20;;
76574;SDS011;65439;50.948;6.988;2023-03-26T01:34:19;16.08;;;4.95;;
76574;SDS011;65439;50.948;6.988;2023-03-26T01:37:13;11.00;;;3.35;;
76574;SDS011;65439;50.948;6.988;2023-03-26T01:39:43;10.63;;;3.83;;
76574;SDS011;65439;50.948;6.988;2023-03-26T01:42:20;16.85;;;4.05;;
76574;SDS011;65439;50.948;6.988;2023-03-26T01:44:56;10.57;;;4.20;;
76574;SDS011;65439;50.948;6.988;2023-03-26T01:47:24;16.90;;;5.45;;
76574;SDS011;65439;50.948;6.988;2023-03-26T01:49:49;9.38;;;3.75;;
76574;SDS011;65439;50.948;6.988;2023-03-26T01:52:16;13.50;;;4.00;;
76574;SDS011;65439;50.948;6.988;2023-03-26T01:54:44;9.73;;;3.97;;
76574;SDS011;65439;50.948;6.988;2023-03-26T01:57:15;17.98;;;4.47;;
76574;SDS011;65439;50.948;6.988;2023-03-26T02:02:28;10.73;;;3.15;;
76574;SDS011;65439;50.948;6.988;2023-03-26T02:10:22;12.63;;;3.20;;
76574;SDS011;65439;50.948;6.988;2023-03-26T02:12:49;15.27;;;3.33;;
76574;SDS011;65439;50.948;6.988;2023-03-26T02:15:15;11.93;;;3.47;;
76574;SDS011;65439;50.948;6.988;2023-03-26T02:17:41;16.20;;;4.07;;
76574;SDS011;65439;50.948;6.988;2023-03-26T02:20:07;17.23;;;3.63;;
76574;SDS011;65439;50.948;6.988;2023-03-26T02:22:34;14.20;;;3.88;;
76574;SDS011;65439;50.948;6.988;2023-03-26T02:25:08;11.45;;;4.32;;
76574;SDS011;65439;50.948;6.988;2023-03-26T02:27:35;12.80;;;3.65;;
76574;SDS011;65439;50.948;6.988;2023-03-26T02:30:01;15.80;;;4.85;;
76574;SDS011;65439;50.948;6.988;2023-03-26T02:32:28;12.18;;;4.35;;
76574;SDS011;65439;50.948;6.988;2023-03-26T02:34:54;18.42;;;4.00;;
76574;SDS011;65439;50.948;6.988;2023-03-26T02:37:19;16.40;;;3.23;;
76574;SDS011;65439;50.948;6.988;2023-03-26T02:39:44;14.25;;;4.13;;
76574;SDS011;65439;50.948;6.988;2023-03-26T02:42:09;12.90;;;3.63;;
76574;SDS011;65439;50.948;6.988;2023-03-26T02:44:35;18.70;;;3.40;;
76574;SDS011;65439;50.948;6.988;2023-03-26T02:47:02;16.65;;;4.55;;
76574;SDS011;65439;50.948;6.988;2023-03-26T02:49:28;12.13;;;3.22;;
76574;SDS011;65439;50.948;6.988;2023-03-26T02:51:53;9.83;;;4.27;;
76574;SDS011;65439;50.948;6.988;2023-03-26T02:54:20;8.65;;;3.33;;
76574;SDS011;65439;50.948;6.988;2023-03-26T02:56:46;6.95;;;3.13;;
76574;SDS011;65439;50.948;6.988;2023-03-26T02:59:11;10.27;;;3.47;;
76574;SDS011;65439;50.948;6.988;2023-03-26T03:01:37;16.42;;;5.28;;
76574;SDS011;65439;50.948;6.988;2023-03-26T03:04:06;13.50;;;3.13;;
76574;SDS011;65439;50.948;6.988;2023-03-26T03:06:33;8.88;;;3.58;;
76574;SDS011;65439;50.948;6.988;2023-03-26T03:08:58;16.87;;;3.40;;
76574;SDS011;65439;50.948;6.988;2023-03-26T03:11:26;13.85;;;4.82;;
76574;SDS011;65439;50.948;6.988;2023-03-26T03:13:52;14.15;;;3.90;;
76574;SDS011;65439;50.948;6.988;2023-03-26T03:16:17;17.92;;;3.90;;
76574;SDS011;65439;50.948;6.988;2023-03-26T03:18:43;17.52;;;5.07;;
76574;SDS011;65439;50.948;6.988;2023-03-26T03:21:10;12.63;;;3.58;;
76574;SDS011;65439;50.948;6.988;2023-03-26T03:23:35;14.15;;;4.25;;
76574;SDS011;65439;50.948;6.988;2023-03-26T03:26:01;7.77;;;3.27;;
76574;SDS011;65439;50.948;6.988;2023-03-26T03:28:26;16.67;;;3.55;;
76574;SDS011;65439;50.948;6.988;2023-03-26T03:30:52;10.55;;;3.55;;
76574;SDS011;65439;50.948;6.988;2023-03-26T03:33:20;11.85;;;3.63;;
76574;SDS011;65439;50.948;6.988;2023-03-26T03:35:46;18.15;;;3.75;;
76574;SDS011;65439;50.948;6.988;2023-03-26T03:38:13;11.38;;;3.67;;
76574;SDS011;65439;50.948;6.988;2023-03-26T03:40:39;10.75;;;3.50;;
76574;SDS011;65439;50.948;6.988;2023-03-26T03:43:04;12.27;;;3.87;;
76574;SDS011;65439;50.948;6.988;2023-03-26T03:45:29;10.27;;;3.27;;
76574;SDS011;65439;50.948;6.988;2023-03-26T03:47:55;8.87;;;3.67;;
76574;SDS011;65439;50.948;6.988;2023-03-26T03:50:20;8.23;;;3.50;;
76574;SDS011;65439;50.948;6.988;2023-03-26T03:52:45;10.77;;;2.83;;
76574;SDS011;65439;50.948;6.988;2023-03-26T03:55:11;8.77;;;3.78;;
76574;SDS011;65439;50.948;6.988;2023-03-26T03:57:38;9.05;;;2.85;;
76574;SDS011;65439;50.948;6.988;2023-03-26T04:00:04;12.65;;;3.17;;
76574;SDS011;65439;50.948;6.988;2023-03-26T04:02:32;11.88;;;4.22;;
76574;SDS011;65439;50.948;6.988;2023-03-26T04:04:58;11.95;;;3.58;;
76574;SDS011;65439;50.948;6.988;2023-03-26T04:07:24;9.40;;;4.15;;
76574;SDS011;65439;50.948;6.988;2023-03-26T04:09:50;10.93;;;2.55;;
76574;SDS011;65439;50.948;6.988;2023-03-26T04:12:16;9.07;;;3.83;;
76574;SDS011;65439;50.948;6.988;2023-03-26T04:14:41;13.55;;;3.55;;
76574;SDS011;65439;50.948;6.988;2023-03-26T04:17:06;10.10;;;2.97;;
76574;SDS011;65439;50.948;6.988;2023-03-26T04:19:32;10.30;;;2.90;;
76574;SDS011;65439;50.948;6.988;2023-03-26T04:21:57;8.07;;;3.75;;
76574;SDS011;65439;50.948;6.988;2023-03-26T04:24:26;9.93;;;3.05;;
76574;SDS011;65439;50.948;6.988;2023-03-26T04:26:52;12.25;;;3.65;;
76574;SDS011;65439;50.948;6.988;2023-03-26T04:29:20;10.57;;;2.72;;
76574;SDS011;65439;50.948;6.988;2023-03-26T04:31:48;11.65;;;2.58;;
76574;SDS011;65439;50.948;6.988;2023-03-26T04:34:19;11.25;;;3.47;;
76574;SDS011;65439;50.948;6.988;2023-03-26T04:36:47;6.53;;;2.70;;
76574;SDS011;65439;50.948;6.988;2023-03-26T04:39:13;10.25;;;2.88;;
76574;SDS011;65439;50.948;6.988;2023-03-26T04:41:39;7.07;;;3.00;;
76574;SDS011;65439;50.948;6.988;2023-03-26T04:44:04;11.17;;;3.10;;
76574;SDS011;65439;50.948;6.988;2023-03-26T04:46:29;9.05;;;3.45;;
76574;SDS011;65439;50.948;6.988;2023-03-26T04:48:57;9.23;;;3.00;;
76574;SDS011;65439;50.948;6.988;2023-03-26T04:51:24;12.48;;;2.70;;
76574;SDS011;65439;50.948;6.988;2023-03-26T04:53:55;8.45;;;2.92;;
76574;SDS011;65439;50.948;6.988;2023-03-26T05:01:15;6.13;;;2.90;;
76574;SDS011;65439;50.948;6.988;2023-03-26T05:03:42;11.75;;;2.92;;
76574;SDS011;65439;50.948;6.988;2023-03-26T05:06:09;9.93;;;3.47;;
76574;SDS011;65439;50.948;6.988;2023-03-26T05:08:35;10.20;;;3.28;;
76574;SDS011;65439;50.948;6.988;2023-03-26T05:11:00;11.03;;;3.37;;
76574;SDS011;65439;50.948;6.988;2023-03-26T05:13:26;11.77;;;3.80;;
76574;SDS011;65439;50.948;6.988;2023-03-26T05:15:51;9.50;;;3.13;;
76574;SDS011;65439;50.948;6.988;2023-03-26T05:18:16;7.75;;;3.58;;
76574;SDS011;65439;50.948;6.988;2023-03-26T05:20:42;12.20;;;3.40;;
76574;SDS011;65439;50.948;6.988;2023-03-26T05:23:08;10.50;;;3.72;;
76574;SDS011;65439;50.948;6.988;2023-03-26T05:25:34;8.90;;;4.05;;
76574;SDS011;65439;50.948;6.988;2023-03-26T05:28:00;13.85;;;3.90;;
76574;SDS011;65439;50.948;6.988;2023-03-26T05:30:25;16.55;;;4.05;;
76574;SDS011;65439;50.948;6.988;2023-03-26T05:32:51;7.95;;;3.33;;
76574;SDS011;65439;50.948;6.988;2023-03-26T05:35:16;8.63;;;3.22;;
76574;SDS011;65439;50.948;6.988;2023-03-26T05:37:42;8.57;;;3.05;;
76574;SDS011;65439;50.948;6.988;2023-03-26T05:40:09;9.88;;;2.80;;
76574;SDS011;65439;50.948;6.988;2023-03-26T05:42:36;5.97;;;3.08;;
76574;SDS011;65439;50.948;6.988;2023-03-26T05:45:02;11.50;;;3.38;;
76574;SDS011;65439;50.948;6.988;2023-03-26T05:47:28;6.35;;;2.70;;
76574;SDS011;65439;50.948;6.988;2023-03-26T05:49:53;10.83;;;4.07;;
76574;SDS011;65439;50.948;6.988;2023-03-26T05:52:18;15.47;;;3.40;;
76574;SDS011;65439;50.948;6.988;2023-03-26T05:54:44;18.08;;;3.75;;
76574;SDS011;65439;50.948;6.988;2023-03-26T05:57:09;7.05;;;3.35;;
76574;SDS011;65439;50.948;6.988;2023-03-26T05:59:34;8.30;;;3.47;;
76574;SDS011;65439;50.948;6.988;2023-03-26T06:02:00;7.63;;;4.32;;
76574;SDS011;65439;50.948;6.988;2023-03-26T06:04:26;15.52;;;4.68;;
76574;SDS011;65439;50.948;6.988;2023-03-26T06:06:52;9.05;;;3.70;;
76574;SDS011;65439;50.948;6.988;2023-03-26T06:09:18;11.35;;;4.90;;
76574;SDS011;65439;50.948;6.988;2023-03-26T06:11:43;11.98;;;3.92;;
76574;SDS011;65439;50.948;6.988;2023-03-26T06:14:08;12.53;;;3.63;;
76574;SDS011;65439;50.948;6.988;2023-03-26T06:16:34;10.20;;;3.53;;
76574;SDS011;65439;50.948;6.988;2023-03-26T06:18:59;10.05;;;3.60;;
76574;SDS011;65439;50.948;6.988;2023-03-26T06:21:25;11.07;;;4.15;;
76574;SDS011;65439;50.948;6.988;2023-03-26T06:23:50;11.10;;;3.10;;
76574;SDS011;65439;50.948;6.988;2023-03-26T06:26:16;10.68;;;3.75;;
76574;SDS011;65439;50.948;6.988;2023-03-26T06:28:42;13.77;;;3.57;;
76574;SDS011;65439;50.948;6.988;2023-03-26T06:31:07;10.73;;;3.90;;
76574;SDS011;65439;50.948;6.988;2023-03-26T06:33:32;8.90;;;3.33;;
76574;SDS011;65439;50.948;6.988;2023-03-26T06:35:58;7.50;;;3.70;;
76574;SDS011;65439;50.948;6.988;2023-03-26T06:38:23;6.60;;;3.50;;
76574;SDS011;65439;50.948;6.988;2023-03-26T06:40:49;10.48;;;3.30;;
76574;SDS011;65439;50.948;6.988;2023-03-26T06:43:15;9.73;;;3.13;;
76574;SDS011;65439;50.948;6.988;2023-03-26T06:45:40;10.37;;;4.23;;
76574;SDS011;65439;50.948;6.988;2023-03-26T06:48:05;12.32;;;4.50;;
76574;SDS011;65439;50.948;6.988;2023-03-26T06:50:31;15.40;;;5.00;;
76574;SDS011;65439;50.948;6.988;2023-03-26T06:52:56;10.80;;;4.28;;
76574;SDS011;65439;50.948;6.988;2023-03-26T06:55:22;12.85;;;4.93;;
76574;SDS011;65439;50.948;6.988;2023-03-26T06:57:51;13.45;;;4.32;;
76574;SDS011;65439;50.948;6.988;2023-03-26T07:00:18;11.40;;;3.95;;
76574;SDS011;65439;50.948;6.988;2023-03-26T07:02:44;14.70;;;3.45;;
76574;SDS011;65439;50.948;6.988;2023-03-26T07:05:09;10.55;;;3.72;;
76574;SDS011;65439;50.948;6.988;2023-03-26T07:07:35;13.75;;;5.18;;
76574;SDS011;65439;50.948;6.988;2023-03-26T07:10:02;8.65;;;4.25;;
76574;SDS011;65439;50.948;6.988;2023-03-26T07:12:27;11.02;;;3.97;;
76574;SDS011;65439;50.948;6.988;2023-03-26T07:14:52;10.80;;;3.83;;
76574;SDS011;65439;50.948;6.988;2023-03-26T07:17:18;4.93;;;3.40;;
76574;SDS011;65439;50.948;6.988;2023-03-26T07:19:43;12.87;;;3.87;;
76574;SDS011;65439;50.948;6.988;2023-03-26T07:22:18;13.37;;;4.00;;
76574;SDS011;65439;50.948;6.988;2023-03-26T07:24:45;17.27;;;5.03;;
76574;SDS011;65439;50.948;6.988;2023-03-26T07:27:17;14.07;;;4.15;;
76574;SDS011;65439;50.948;6.988;2023-03-26T07:30:31;12.13;;;3.90;;
76574;SDS011;65439;50.948;6.988;2023-03-26T07:33:16;12.80;;;3.75;;
76574;SDS011;65439;50.948;6.988;2023-03-26T07:41:04;15.95;;;3.80;;
76574;SDS011;65439;50.948;6.988;2023-03-26T07:46:45;11.02;;;3.25;;
76574;SDS011;65439;50.948;6.988;2023-03-26T07:49:12;11.70;;;4.30;;
76574;SDS011;65439;50.948;6.988;2023-03-26T07:51:38;13.90;;;3.78;;
76574;SDS011;65439;50.948;6.988;2023-03-26T07:54:03;14.95;;;3.97;;
76574;SDS011;65439;50.948;6.988;2023-03-26T07:56:33;14.52;;;3.92;;
76574;SDS011;65439;50.948;6.988;2023-03-26T07:59:18;10.57;;;3.72;;
76574;SDS011;65439;50.948;6.988;2023-03-26T08:17:15;9.20;;;4.03;;
76574;SDS011;65439;50.948;6.988;2023-03-26T08:22:29;7.47;;;3.40;;
76574;SDS011;65439;50.948;6.988;2023-03-26T08:25:01;13.68;;;4.63;;
76574;SDS011;65439;50.948;6.988;2023-03-26T08:27:37;12.23;;;5.68;;
76574;SDS011;65439;50.948;6.988;2023-03-26T08:30:15;12.98;;;4.38;;
76574;SDS011;65439;50.948;6.988;2023-03-26T08:32:44;5.38;;;3.70;;
76574;SDS011;65439;50.948;6.988;2023-03-26T08:35:17;11.02;;;4.13;;
76574;SDS011;65439;50.948;6.988;2023-03-26T08:37:43;12.87;;;4.17;;
76574;SDS011;65439;50.948;6.988;2023-03-26T08:40:09;12.48;;;4.22;;
76574;SDS011;65439;50.948;6.988;2023-03-26T08:50:39;13.38;;;4.60;;
76574;SDS011;65439;50.948;6.988;2023-03-26T08:58:59;7.75;;;3.80;;
76574;SDS011;65439;50.948;6.988;2023-03-26T09:02:05;11.57;;;4.47;;
76574;SDS011;65439;50.948;6.988;2023-03-26T09:05:00;10.55;;;4.18;;
76574;SDS011;65439;50.948;6.988;2023-03-26T09:10:05;8.25;;;3.25;;
76574;SDS011;65439;50.948;6.988;2023-03-26T09:15:51;5.68;;;3.03;;
76574;SDS011;65439;50.948;6.988;2023-03-26T09:24:00;4.95;;;2.60;;
76574;SDS011;65439;50.948;6.988;2023-03-26T09:37:57;4.40;;;2.20;;
76574;SDS011;65439;50.948;6.988;2023-03-26T09:40:36;2.70;;;2.20;;
76574;SDS011;65439;50.948;6.988;2023-03-26T09:48:57;7.03;;;2.67;;
76574;SDS011;65439;50.948;6.988;2023-03-26T09:56:30;3.78;;;2.47;;
76574;SDS011;65439;50.948;6.988;2023-03-26T10:02:10;4.75;;;3.22;;
76574;SDS011;65439;50.948;6.988;2023-03-26T10:07:46;7.18;;;2.55;;
76574;SDS011;65439;50.948;6.988;2023-03-26T10:10:22;6.03;;;3.17;;
76574;SDS011;65439;50.948;6.988;2023-03-26T10:13:19;4.72;;;2.63;;
76574;SDS011;65439;50.948;6.988;2023-03-26T10:21:45;4.15;;;2.72;;
76574;SDS011;65439;50.948;6.988;2023-03-26T10:35:41;3.38;;;3.08;;
76574;SDS011;65439;50.948;6.988;2023-03-26T10:38:13;6.25;;;2.83;;
76574;SDS011;65439;50.948;6.988;2023-03-26T10:40:49;7.38;;;2.72;;
76574;SDS011;65439;50.948;6.988;2023-03-26T10:49:19;6.10;;;3.33;;
76574;SDS011;65439;50.948;6.988;2023-03-26T10:52:05;3.63;;;2.70;;
76574;SDS011;65439;50.948;6.988;2023-03-26T10:54:42;3.50;;;2.42;;
76574;SDS011;65439;50.948;6.988;2023-03-26T11:00:04;5.13;;;3.00;;
76574;SDS011;65439;50.948;6.988;2023-03-26T11:02:41;5.82;;;2.70;;
76574;SDS011;65439;50.948;6.988;2023-03-26T11:08:17;5.75;;;3.10;;
76574;SDS011;65439;50.948;6.988;2023-03-26T11:10:55;4.07;;;2.58;;
76574;SDS011;65439;50.948;6.988;2023-03-26T11:16:18;4.82;;;2.70;;
76574;SDS011;65439;50.948;6.988;2023-03-26T11:21:42;6.00;;;2.97;;
76574;SDS011;65439;50.948;6.988;2023-03-26T11:24:33;6.43;;;2.50;;
76574;SDS011;65439;50.948;6.988;2023-03-26T11:27:06;4.05;;;2.47;;
76574;SDS011;65439;50.948;6.988;2023-03-26T11:29:45;6.03;;;3.40;;
76574;SDS011;65439;50.948;6.988;2023-03-26T11:32:21;5.60;;;2.85;;
76574;SDS011;65439;50.948;6.988;2023-03-26T11:34:55;9.52;;;3.17;;
76574;SDS011;65439;50.948;6.988;2023-03-26T11:37:45;6.85;;;2.53;;
76574;SDS011;65439;50.948;6.988;2023-03-26T11:40:17;3.90;;;2.78;;
76574;SDS011;65439;50.948;6.988;2023-03-26T11:42:45;4.82;;;2.60;;
76574;SDS011;65439;50.948;6.988;2023-03-26T11:45:13;3.70;;;2.33;;
76574;SDS011;65439;50.948;6.988;2023-03-26T11:47:44;3.28;;;2.72;;
76574;SDS011;65439;50.948;6.988;2023-03-26T11:50:17;4.72;;;2.55;;
76574;SDS011;65439;50.948;6.988;2023-03-26T11:52:45;6.80;;;2.78;;
76574;SDS011;65439;50.948;6.988;2023-03-26T11:55:11;8.45;;;4.10;;
76574;SDS011;65439;50.948;6.988;2023-03-26T11:57:36;3.15;;;2.65;;
76574;SDS011;65439;50.948;6.988;2023-03-26T12:00:06;6.65;;;3.40;;
76574;SDS011;65439;50.948;6.988;2023-03-26T12:02:43;4.97;;;2.78;;
76574;SDS011;65439;50.948;6.988;2023-03-26T12:07:46;2.92;;;2.45;;
76574;SDS011;65439;50.948;6.988;2023-03-26T12:10:20;7.03;;;3.38;;
76574;SDS011;65439;50.948;6.988;2023-03-26T12:12:49;4.05;;;3.00;;
76574;SDS011;65439;50.948;6.988;2023-03-26T12:15:17;3.72;;;2.58;;
76574;SDS011;65439;50.948;6.988;2023-03-26T12:17:44;6.13;;;3.22;;
76574;SDS011;65439;50.948;6.988;2023-03-26T12:20:25;3.22;;;2.63;;
76574;SDS011;65439;50.948;6.988;2023-03-26T12:22:56;5.13;;;2.35;;
76574;SDS011;65439;50.948;6.988;2023-03-26T12:25:24;3.83;;;3.30;;
76574;SDS011;65439;50.948;6.988;2023-03-26T12:30:37;5.60;;;3.25;;
76574;SDS011;65439;50.948;6.988;2023-03-26T12:33:04;7.18;;;3.55;;
76574;SDS011;65439;50.948;6.988;2023-03-26T12:35:34;6.47;;;2.60;;
76574;SDS011;65439;50.948;6.988;2023-03-26T12:38:13;6.70;;;2.97;;
76574;SDS011;65439;50.948;6.988;2023-03-26T12:40:41;7.13;;;2.50;;
76574;SDS011;65439;50.948;6.988;2023-03-26T12:46:24;3.97;;;2.30;;
76574;SDS011;65439;50.948;6.988;2023-03-26T12:48:53;4.28;;;2.50;;
76574;SDS011;65439;50.948;6.988;2023-03-26T13:16:32;6.70;;;2.47;;
76574;SDS011;65439;50.948;6.988;2023-03-26T13:19:09;4.43;;;2.75;;
76574;SDS011;65439;50.948;6.988;2023-03-26T13:21:56;4.70;;;3.05;;
76574;SDS011;65439;50.948;6.988;2023-03-26T13:27:39;4.40;;;3.08;;
76574;SDS011;65439;50.948;6.988;2023-03-26T13:30:32;3.25;;;2.95;;
76574;SDS011;65439;50.948;6.988;2023-03-26T13:33:12;4.00;;;2.97;;
76574;SDS011;65439;50.948;6.988;2023-03-26T13:35:41;3.40;;;2.63;;
76574;SDS011;65439;50.948;6.988;2023-03-26T13:38:20;3.90;;;2.78;;
76574;SDS011;65439;50.948;6.988;2023-03-26T13:41:07;4.03;;;2.72;;
76574;SDS011;65439;50.948;6.988;2023-03-26T13:46:31;5.65;;;3.33;;
76574;SDS011;65439;50.948;6.988;2023-03-26T13:49:04;4.20;;;2.95;;
76574;SDS011;65439;50.948;6.988;2023-03-26T13:51:34;4.28;;;3.10;;
76574;SDS011;65439;50.948;6.988;2023-03-26T13:54:22;4.43;;;3.05;;
76574;SDS011;65439;50.948;6.988;2023-03-26T13:57:08;5.72;;;2.70;;
76574;SDS011;65439;50.948;6.988;2023-03-26T13:59:54;5.00;;;3.05;;
76574;SDS011;65439;50.948;6.988;2023-03-26T14:04:55;6.95;;;4.38;;
76574;SDS011;65439;50.948;6.988;2023-03-26T14:07:26;6.85;;;3.20;;
76574;SDS011;65439;50.948;6.988;2023-03-26T14:10:19;4.93;;;3.42;;
76574;SDS011;65439;50.948;6.988;2023-03-26T14:15:36;3.95;;;3.55;;
76574;SDS011;65439;50.948;6.988;2023-03-26T14:26:22;3.72;;;2.88;;
76574;SDS011;65439;50.948;6.988;2023-03-26T14:34:29;3.90;;;2.83;;
76574;SDS011;65439;50.948;6.988;2023-03-26T14:59:39;4.18;;;3.10;;
76574;SDS011;65439;50.948;6.988;2023-03-26T15:21:34;3.65;;;2.30;;
76574;SDS011;65439;50.948;6.988;2023-03-26T15:44:53;2.58;;;2.00;;
76574;SDS011;65439;50.948;6.988;2023-03-26T15:52:37;2.90;;;2.10;;
76574;SDS011;65439;50.948;6.988;2023-03-26T15:57:48;3.97;;;3.35;;
76574;SDS011;65439;50.948;6.988;2023-03-26T16:00:27;3.58;;;1.92;;
76574;SDS011;65439;50.948;6.988;2023-03-26T16:08:40;2.65;;;2.00;;
76574;SDS011;65439;50.948;6.988;2023-03-26T16:11:31;2.75;;;1.83;;
76574;SDS011;65439;50.948;6.988;2023-03-26T16:14:22;3.92;;;2.20;;
76574;SDS011;65439;50.948;6.988;2023-03-26T16:16:53;5.07;;;1.95;;
76574;SDS011;65439;50.948;6.988;2023-03-26T16:21:56;2.40;;;2.03;;
76574;SDS011;65439;50.948;6.988;2023-03-26T16:24:31;3.45;;;2.10;;
76574;SDS011;65439;50.948;6.988;2023-03-26T16:26:59;1.85;;;1.60;;
76574;SDS011;65439;50.948;6.988;2023-03-26T16:32:03;2.45;;;1.75;;
76574;SDS011;65439;50.948;6.988;2023-03-26T16:34:36;1.40;;;1.30;;
76574;SDS011;65439;50.948;6.988;2023-03-26T16:37:25;1.90;;;1.45;;
76574;SDS011;65439;50.948;6.988;2023-03-26T16:42:48;2.45;;;2.00;;
76574;SDS011;65439;50.948;6.988;2023-03-26T16:48:16;1.83;;;1.63;;
76574;SDS011;65439;50.948;6.988;2023-03-26T16:53:27;2.05;;;1.83;;
76574;SDS011;65439;50.948;6.988;2023-03-26T16:56:10;1.75;;;1.52;;
76574;SDS011;65439;50.948;6.988;2023-03-26T17:03:52;3.38;;;2.20;;
76574;SDS011;65439;50.948;6.988;2023-03-26T17:06:22;3.28;;;2.47;;
76574;SDS011;65439;50.948;6.988;2023-03-26T17:11:34;3.55;;;1.92;;
76574;SDS011;65439;50.948;6.988;2023-03-26T17:14:26;2.90;;;2.45;;
76574;SDS011;65439;50.948;6.988;2023-03-26T17:22:46;2.92;;;2.03;;
76574;SDS011;65439;50.948;6.988;2023-03-26T17:27:51;3.22;;;2.40;;
76574;SDS011;65439;50.948;6.988;2023-03-26T17:33:35;2.15;;;1.95;;
76574;SDS011;65439;50.948;6.988;2023-03-26T17:41:09;2.95;;;2.35;;
76574;SDS011;65439;50.948;6.988;2023-03-26T17:43:36;3.55;;;2.80;;
76574;SDS011;65439;50.948;6.988;2023-03-26T17:48:29;3.50;;;2.95;;
76574;SDS011;65439;50.948;6.988;2023-03-26T17:51:26;5.70;;;4.15;;
76574;SDS011;65439;50.948;6.988;2023-03-26T17:53:44;5.03;;;3.55;;
76574;SDS011;65439;50.948;6.988;2023-03-26T17:56:17;4.88;;;3.35;;
76574;SDS011;65439;50.948;6.988;2023-03-26T17:58:45;4.10;;;3.67;;
76574;SDS011;65439;50.948;6.988;2023-03-26T18:04:20;6.80;;;3.83;;
76574;SDS011;65439;50.948;6.988;2023-03-26T18:17:45;7.20;;;6.13;;
76574;SDS011;65439;50.948;6.988;2023-03-26T18:20:19;7.80;;;5.72;;
76574;SDS011;65439;50.948;6.988;2023-03-26T18:22:47;8.70;;;5.20;;
76574;SDS011;65439;50.948;6.988;2023-03-26T18:25:24;10.38;;;5.53;;
76574;SDS011;65439;50.948;6.988;2023-03-26T18:27:53;15.60;;;7.68;;
76574;SDS011;65439;50.948;6.988;2023-03-26T18:30:23;10.73;;;6.55;;
76574;SDS011;65439;50.948;6.988;2023-03-26T18:32:58;12.85;;;5.32;;
76574;SDS011;65439;50.948;6.988;2023-03-26T18:35:45;11.18;;;5.82;;
76574;SDS011;65439;50.948;6.988;2023-03-26T18:38:17;14.05;;;5.50;;
76574;SDS011;65439;50.948;6.988;2023-03-26T18:40:43;7.35;;;5.65;;
76574;SDS011;65439;50.948;6.988;2023-03-26T18:43:12;10.70;;;6.05;;
76574;SDS011;65439;50.948;6.988;2023-03-26T18:45:40;6.55;;;3.90;;
76574;SDS011;65439;50.948;6.988;2023-03-26T18:48:10;14.63;;;6.50;;
76574;SDS011;65439;50.948;6.988;2023-03-26T18:50:41;16.85;;;4.05;;
76574;SDS011;65439;50.948;6.988;2023-03-26T18:53:08;14.73;;;4.60;;
76574;SDS011;65439;50.948;6.988;2023-03-26T18:55:39;12.05;;;5.63;;
76574;SDS011;65439;50.948;6.988;2023-03-26T19:01:01;11.20;;;5.97;;
76574;SDS011;65439;50.948;6.988;2023-03-26T19:03:33;8.57;;;4.63;;
76574;SDS011;65439;50.948;6.988;2023-03-26T19:05:59;8.98;;;3.80;;
76574;SDS011;65439;50.948;6.988;2023-03-26T19:08:26;13.95;;;5.43;;
76574;SDS011;65439;50.948;6.988;2023-03-26T19:10:52;17.00;;;5.47;;
76574;SDS011;65439;50.948;6.988;2023-03-26T19:13:21;15.43;;;4.35;;
76574;SDS011;65439;50.948;6.988;2023-03-26T19:15:47;13.77;;;5.60;;
76574;SDS011;65439;50.948;6.988;2023-03-26T19:18:35;17.88;;;6.30;;
76574;SDS011;65439;50.948;6.988;2023-03-26T19:23:30;11.00;;;4.05;;
76574;SDS011;65439;50.948;6.988;2023-03-26T19:26:01;9.23;;;4.07;;
76574;SDS011;65439;50.948;6.988;2023-03-26T19:28:47;8.05;;;4.20;;
76574;SDS011;65439;50.948;6.988;2023-03-26T19:31:18;8.98;;;4.13;;
76574;SDS011;65439;50.948;6.988;2023-03-26T19:33:57;9.23;;;5.00;;
76574;SDS011;65439;50.948;6.988;2023-03-26T19:36:29;10.63;;;3.60;;
76574;SDS011;65439;50.948;6.988;2023-03-26T19:41:25;12.63;;;5.00;;
76574;SDS011;65439;50.948;6.988;2023-03-26T19:43:57;11.15;;;4.60;;
76574;SDS011;65439;50.948;6.988;2023-03-26T19:46:24;10.32;;;4.40;;
76574;SDS011;65439;50.948;6.988;2023-03-26T19:48:51;10.38;;;4.72;;
76574;SDS011;65439;50.948;6.988;2023-03-26T19:51:23;5.03;;;3.20;;
76574;SDS011;65439;50.948;6.988;2023-03-26T19:53:56;7.80;;;3.45;;
76574;SDS011;65439;50.948;6.988;2023-03-26T19:56:24;13.25;;;4.35;;
76574;SDS011;65439;50.948;6.988;2023-03-26T19:58:49;17.05;;;5.05;;
76574;SDS011;65439;50.948;6.988;2023-03-26T20:01:16;9.18;;;3.35;;
76574;SDS011;65439;50.948;6.988;2023-03-26T20:03:44;14.93;;;5.53;;
76574;SDS011;65439;50.948;6.988;2023-03-26T20:06:11;11.20;;;4.25;;
76574;SDS011;65439;50.948;6.988;2023-03-26T20:08:37;6.97;;;3.30;;
76574;SDS011;65439;50.948;6.988;2023-03-26T20:11:04;8.73;;;4.22;;
76574;SDS011;65439;50.948;6.988;2023-03-26T20:13:33;12.23;;;5.97;;
76574;SDS011;65439;50.948;6.988;2023-03-26T20:16:06;8.10;;;3.95;;
76574;SDS011;65439;50.948;6.988;2023-03-26T20:18:35;9.65;;;3.90;;
76574;SDS011;65439;50.948;6.988;2023-03-26T20:21:04;7.47;;;3.40;;
76574;SDS011;65439;50.948;6.988;2023-03-26T20:23:33;14.73;;;4.28;;
76574;SDS011;65439;50.948;6.988;2023-03-26T20:25:58;16.20;;;3.80;;
76574;SDS011;65439;50.948;6.988;2023-03-26T20:28:24;9.50;;;4.50;;
76574;SDS011;65439;50.948;6.988;2023-03-26T20:30:49;11.50;;;5.17;;